createdAt,value
2019-03-01T00:01:47.410Z,3.20
2019-03-01T00:04:24.035Z,3.67
2019-03-01T00:07:37.460Z,3.60
2019-03-01T00:10:33.195Z,2.83
2019-03-01T00:13:34.661Z,3.70
2019-03-01T00:16:47.846Z,2.57
2019-03-01T00:19:30.760Z,3.43
2019-03-01T00:22:21.793Z,3.03
2019-03-01T00:25:30.953Z,2.87
2019-03-01T00:28:31.657Z,2.97
2019-03-01T00:31:35.977Z,2.90
2019-03-01T00:34:28.395Z,3.03
2019-03-01T00:37:28.879Z,3.77
2019-03-01T00:40:41.260Z,3.37
2019-03-01T00:43:47.053Z,3.37
2019-03-01T00:46:16.380Z,3.67
2019-03-01T00:48:45.543Z,3.80
2019-03-01T00:51:14.786Z,3.43
2019-03-01T00:53:43.961Z,2.57
2019-03-01T00:56:13.113Z,2.70
2019-03-01T00:58:42.240Z,2.90
2019-03-01T01:01:13.192Z,3.17
2019-03-01T01:03:42.343Z,2.43
2019-03-01T01:06:11.505Z,2.90
2019-03-01T01:08:40.683Z,2.73
2019-03-01T01:11:10.149Z,2.70
2019-03-01T01:13:39.309Z,3.43
2019-03-01T01:16:08.493Z,2.93
2019-03-01T01:18:37.627Z,3.00
2019-03-01T01:21:06.909Z,3.30
2019-03-01T01:23:36.041Z,2.73
2019-03-01T01:26:05.350Z,2.77
2019-03-01T01:28:34.545Z,2.97
2019-03-01T01:31:03.731Z,2.87
2019-03-01T01:33:32.966Z,2.53
2019-03-01T01:36:02.159Z,3.10
2019-03-01T01:38:31.343Z,3.43
2019-03-01T01:41:00.586Z,4.17
2019-03-01T01:43:29.717Z,2.57
2019-03-01T01:45:58.919Z,2.90
2019-03-01T01:48:28.052Z,2.90
2019-03-01T01:50:57.175Z,2.60
2019-03-01T01:53:26.335Z,3.23
2019-03-01T01:55:55.442Z,3.17
2019-03-01T01:58:24.634Z,3.27
2019-03-01T02:00:53.775Z,3.83
2019-03-01T02:03:22.998Z,4.00
2019-03-01T02:05:52.242Z,4.53
2019-03-01T02:08:21.371Z,4.70
2019-03-01T02:10:50.623Z,4.27
2019-03-01T02:13:19.767Z,4.57
2019-03-01T02:15:48.946Z,4.67
2019-03-01T02:18:18.122Z,5.10
2019-03-01T02:20:47.420Z,4.33
2019-03-01T02:23:16.713Z,4.73
2019-03-01T02:25:45.870Z,4.43
2019-03-01T02:28:15.026Z,5.07
2019-03-01T02:30:44.278Z,3.93
2019-03-01T02:33:13.394Z,4.93
2019-03-01T02:35:42.538Z,5.57
2019-03-01T02:38:11.669Z,5.07
2019-03-01T02:40:40.924Z,5.53
2019-03-01T02:43:10.004Z,5.90
2019-03-01T02:45:39.222Z,5.83
2019-03-01T02:48:08.393Z,5.07
2019-03-01T02:50:37.518Z,5.97
2019-03-01T02:53:06.818Z,6.37
2019-03-01T02:55:36.006Z,5.60
2019-03-01T02:58:05.094Z,6.60
2019-03-01T03:00:34.264Z,6.33
2019-03-01T03:03:03.422Z,5.70
2019-03-01T03:05:34.244Z,6.90
2019-03-01T03:08:05.553Z,7.03
2019-03-01T03:10:34.805Z,7.43
2019-03-01T03:13:06.334Z,6.10
2019-03-01T03:15:41.864Z,6.47
2019-03-01T03:18:10.992Z,6.00
2019-03-01T03:20:40.243Z,5.93
2019-03-01T03:23:09.456Z,5.93
2019-03-01T03:25:38.619Z,6.87
2019-03-01T03:28:07.849Z,5.47
2019-03-01T03:30:37.044Z,5.47
2019-03-01T03:33:06.306Z,5.90
2019-03-01T03:35:35.449Z,5.97
2019-03-01T03:38:04.613Z,6.27
2019-03-01T03:40:33.769Z,5.63
2019-03-01T03:43:02.932Z,5.30
2019-03-01T03:45:32.185Z,6.73
2019-03-01T03:48:01.497Z,5.97
2019-03-01T03:50:33.450Z,5.87
2019-03-01T03:53:02.791Z,5.13
2019-03-01T03:55:31.982Z,4.80
2019-03-01T03:58:01.244Z,5.37
2019-03-01T04:00:30.439Z,5.13
2019-03-01T04:02:59.611Z,4.63
2019-03-01T04:05:28.798Z,5.30
2019-03-01T04:08:00.289Z,5.33
2019-03-01T04:10:29.435Z,4.67
2019-03-01T04:12:58.655Z,5.13
2019-03-01T04:15:27.912Z,4.70
2019-03-01T04:17:57.095Z,5.07
2019-03-01T04:20:26.237Z,5.70
2019-03-01T04:22:55.477Z,5.67
2019-03-01T04:25:25.780Z,5.30
2019-03-01T04:27:55.094Z,5.23
2019-03-01T04:30:24.352Z,5.87
2019-03-01T04:32:53.579Z,5.90
2019-03-01T04:35:22.775Z,5.57
2019-03-01T04:37:51.983Z,6.13
2019-03-01T04:40:21.210Z,6.20
2019-03-01T04:42:50.485Z,5.80
2019-03-01T04:45:19.743Z,6.40
2019-03-01T04:47:48.935Z,4.97
2019-03-01T04:50:18.050Z,6.70
2019-03-01T04:52:47.209Z,5.70
2019-03-01T04:55:18.836Z,5.77
2019-03-01T04:57:47.983Z,5.10
2019-03-01T05:00:19.129Z,5.40
2019-03-01T05:02:48.342Z,5.20
2019-03-01T05:05:17.471Z,6.33
2019-03-01T05:07:46.727Z,6.33
2019-03-01T05:10:16.337Z,5.40
2019-03-01T05:12:45.703Z,4.63
2019-03-01T05:15:16.940Z,4.60
2019-03-01T05:17:46.093Z,5.23
2019-03-01T05:20:15.628Z,4.93
2019-03-01T05:22:44.776Z,5.80
2019-03-01T05:25:14.129Z,5.70
2019-03-01T05:27:43.296Z,5.93
2019-03-01T05:30:13.809Z,5.27
2019-03-01T05:32:42.955Z,5.47
2019-03-01T05:35:12.981Z,5.97
2019-03-01T05:37:42.137Z,5.07
2019-03-01T05:40:12.195Z,6.00
2019-03-01T05:42:41.438Z,5.10
2019-03-01T05:45:16.322Z,4.50
2019-03-01T05:47:45.465Z,4.00
2019-03-01T05:50:14.705Z,3.77
2019-03-01T05:52:43.939Z,2.80
2019-03-01T05:55:13.197Z,3.10
2019-03-01T05:58:18.134Z,1.73
2019-03-01T06:00:47.338Z,1.50
2019-03-01T06:04:00.507Z,1.30
2019-03-01T06:06:52.347Z,1.40
2019-03-01T06:10:06.017Z,1.43
2019-03-01T06:13:31.402Z,1.97
2019-03-01T06:16:19.805Z,0.83
2019-03-01T06:19:24.816Z,0.63
2019-03-01T06:22:39.977Z,0.70
2019-03-01T06:25:47.054Z,0.60
2019-03-01T06:28:40.889Z,0.50
2019-03-01T06:31:56.117Z,0.63
2019-03-01T06:35:15.638Z,0.63
2019-03-01T06:38:51.696Z,1.37
2019-03-01T06:41:33.839Z,0.70
2019-03-01T06:44:46.873Z,0.50
2019-03-01T06:47:39.044Z,0.70
2019-03-01T06:50:14.264Z,0.70
2019-03-01T06:52:43.467Z,0.80
2019-03-01T06:55:37.455Z,0.93
2019-03-01T06:58:08.473Z,0.70
2019-03-01T07:00:49.878Z,0.70
2019-03-01T07:03:13.216Z,0.60
2019-03-01T07:05:42.335Z,0.70
2019-03-01T07:08:11.456Z,0.63
2019-03-01T07:10:40.638Z,1.17
2019-03-01T07:13:09.782Z,0.50
2019-03-01T07:15:38.904Z,1.00
2019-03-01T07:18:08.066Z,1.23
2019-03-01T07:20:37.338Z,1.07
2019-03-01T07:23:06.505Z,1.47
2019-03-01T07:25:35.678Z,1.33
2019-03-01T07:28:04.867Z,1.13
2019-03-01T07:30:34.008Z,1.33
2019-03-01T07:33:03.180Z,1.60
2019-03-01T07:35:32.506Z,1.40
2019-03-01T07:38:01.610Z,1.03
2019-03-01T07:40:30.757Z,0.90
2019-03-01T07:42:59.952Z,0.93
2019-03-01T07:45:29.095Z,0.90
2019-03-01T07:47:58.191Z,1.00
2019-03-01T07:50:27.363Z,0.80
2019-03-01T07:52:56.558Z,1.00
2019-03-01T07:55:28.406Z,1.00
2019-03-01T07:57:56.701Z,0.90
2019-03-01T08:00:25.894Z,1.53
2019-03-01T08:02:55.108Z,1.80
2019-03-01T08:05:24.283Z,2.30
2019-03-01T08:07:56.330Z,2.27
2019-03-01T08:10:24.238Z,2.37
2019-03-01T08:12:53.428Z,3.47
2019-03-01T08:15:22.656Z,2.97
2019-03-01T08:17:51.982Z,2.70
2019-03-01T08:20:21.262Z,3.23
2019-03-01T08:22:50.429Z,3.40
2019-03-01T08:25:23.422Z,3.33
2019-03-01T08:27:51.850Z,4.00
2019-03-01T08:30:20.963Z,3.70
2019-03-01T08:32:50.094Z,3.67
2019-03-01T08:35:19.282Z,3.67
2019-03-01T08:37:50.027Z,3.53
2019-03-01T08:40:19.484Z,3.60
2019-03-01T08:42:48.719Z,3.83
2019-03-01T08:45:17.962Z,5.03
2019-03-01T08:47:48.815Z,4.30
2019-03-01T08:50:18.221Z,5.17
2019-03-01T08:52:47.682Z,5.70
2019-03-01T08:55:17.932Z,5.47
2019-03-01T08:57:47.178Z,6.23
2019-03-01T09:00:26.691Z,6.13
2019-03-01T09:02:55.993Z,6.87
2019-03-01T09:05:25.127Z,7.23
2019-03-01T09:07:54.266Z,7.00
2019-03-01T09:10:23.418Z,7.27
2019-03-01T09:12:52.724Z,7.70
2019-03-01T09:15:21.936Z,7.27
2019-03-01T09:17:51.057Z,6.27
2019-03-01T09:20:20.745Z,8.17
2019-03-01T09:22:51.160Z,8.53
2019-03-01T09:25:20.501Z,7.70
2019-03-01T09:27:49.770Z,8.40
2019-03-01T09:30:23.701Z,7.77
2019-03-01T09:32:52.963Z,9.13
2019-03-01T09:35:44.276Z,9.30
2019-03-01T09:38:14.307Z,10.10
2019-03-01T09:40:43.551Z,10.53
2019-03-01T09:43:12.774Z,11.43
2019-03-01T09:45:42.046Z,11.67
2019-03-01T09:48:12.217Z,10.97
2019-03-01T09:50:42.243Z,9.43
2019-03-01T09:53:11.429Z,9.73
2019-03-01T09:55:40.595Z,13.13
2019-03-01T09:58:09.921Z,10.77
2019-03-01T10:00:40.581Z,8.60
2019-03-01T10:03:09.819Z,10.17
2019-03-01T10:05:38.961Z,8.90
2019-03-01T10:08:08.103Z,9.27
2019-03-01T10:10:39.178Z,8.87
2019-03-01T10:13:08.505Z,8.77
2019-03-01T10:15:37.912Z,7.47
2019-03-01T10:18:07.293Z,7.83
2019-03-01T10:20:36.733Z,8.67
2019-03-01T10:23:05.961Z,35.10
2019-03-01T10:25:35.148Z,15.33
2019-03-01T10:28:04.309Z,8.47
2019-03-01T10:30:33.607Z,25.30
2019-03-01T10:33:02.802Z,8.27
2019-03-01T10:35:32.200Z,17.43
2019-03-01T10:38:01.407Z,10.10
2019-03-01T10:40:30.560Z,7.57
2019-03-01T10:42:59.742Z,8.00
2019-03-01T10:45:29.201Z,14.47
2019-03-01T10:47:58.810Z,7.10
2019-03-01T10:50:28.012Z,6.73
2019-03-01T10:52:57.216Z,7.97
2019-03-01T10:55:26.576Z,9.30
2019-03-01T10:57:55.846Z,10.57
2019-03-01T11:00:26.692Z,6.77
2019-03-01T11:02:56.006Z,5.20
2019-03-01T11:05:25.480Z,23.07
2019-03-01T11:07:54.844Z,9.73
2019-03-01T11:10:29.200Z,9.97
2019-03-01T11:12:58.947Z,43.43
2019-03-01T11:15:28.953Z,134.23
2019-03-01T11:17:58.088Z,61.97
2019-03-01T11:20:27.310Z,6.30
2019-03-01T11:22:59.912Z,104.20
2019-03-01T11:25:32.823Z,37.90
2019-03-01T11:28:02.352Z,5.87
2019-03-01T11:30:31.758Z,12.73
2019-03-01T11:33:00.993Z,13.10
2019-03-01T11:35:30.218Z,11.93
2019-03-01T11:37:59.394Z,6.63
2019-03-01T11:40:30.876Z,12.90
2019-03-01T11:43:01.452Z,8.03
2019-03-01T11:45:30.642Z,5.50
2019-03-01T11:47:59.780Z,6.90
2019-03-01T11:50:28.876Z,5.27
2019-03-01T11:52:58.195Z,7.03
2019-03-01T11:55:28.680Z,6.40
2019-03-01T11:57:58.192Z,10.27
2019-03-01T12:00:27.734Z,6.53
2019-03-01T12:02:56.860Z,8.53
2019-03-01T12:05:26.027Z,29.50
2019-03-01T12:07:55.187Z,11.30
2019-03-01T12:10:25.639Z,7.53
2019-03-01T12:12:54.805Z,6.50
2019-03-01T12:15:24.086Z,8.80
2019-03-01T12:17:53.336Z,9.03
2019-03-01T12:20:22.812Z,10.60
2019-03-01T12:22:52.019Z,9.13
2019-03-01T12:25:21.531Z,12.37
2019-03-01T12:27:50.830Z,8.93
2019-03-01T12:30:21.262Z,9.83
2019-03-01T12:32:50.418Z,13.57
2019-03-01T12:35:19.536Z,9.03
2019-03-01T12:37:48.714Z,10.90
2019-03-01T12:40:20.272Z,11.10
2019-03-01T12:42:49.418Z,13.77
2019-03-01T12:45:18.564Z,12.07
2019-03-01T12:47:47.752Z,11.67
2019-03-01T12:50:16.938Z,10.67
2019-03-01T12:52:46.240Z,11.93
2019-03-01T12:55:19.238Z,13.13
2019-03-01T12:57:48.354Z,9.33
2019-03-01T13:00:23.432Z,10.57
2019-03-01T13:02:52.545Z,9.73
2019-03-01T13:05:21.664Z,11.40
2019-03-01T13:07:50.825Z,9.70
2019-03-01T13:10:22.349Z,10.30
2019-03-01T13:12:51.600Z,10.60
2019-03-01T13:15:20.851Z,10.60
2019-03-01T13:17:50.097Z,11.13
2019-03-01T13:20:19.363Z,10.83
2019-03-01T13:22:48.497Z,11.50
2019-03-01T13:25:17.751Z,13.87
2019-03-01T13:27:48.874Z,16.17
2019-03-01T13:30:21.692Z,14.87
2019-03-01T13:32:50.845Z,17.83
2019-03-01T13:35:22.375Z,18.37
2019-03-01T13:37:51.921Z,18.83
2019-03-01T13:40:24.522Z,22.13
2019-03-01T13:42:52.761Z,22.20
2019-03-01T13:45:22.104Z,24.07
2019-03-01T13:47:51.263Z,23.37
2019-03-01T13:50:20.446Z,23.77
2019-03-01T13:52:50.656Z,23.73
2019-03-01T13:55:22.137Z,23.47
2019-03-01T13:57:51.382Z,23.00
2019-03-01T14:00:20.896Z,22.83
2019-03-01T14:02:50.021Z,23.03
2019-03-01T14:05:19.603Z,25.43
2019-03-01T14:07:52.020Z,24.57
2019-03-01T14:10:20.450Z,25.33
2019-03-01T14:12:49.589Z,26.23
2019-03-01T14:15:18.823Z,25.70
2019-03-01T14:17:48.063Z,26.03
2019-03-01T14:20:20.452Z,27.70
2019-03-01T14:22:49.537Z,28.73
2019-03-01T14:25:18.757Z,31.40
2019-03-01T14:27:47.929Z,32.20
2019-03-01T14:30:18.703Z,36.50
2019-03-01T14:32:47.843Z,35.70
2019-03-01T14:35:20.583Z,34.87
2019-03-01T14:37:47.886Z,37.30
2019-03-01T14:40:19.080Z,40.27
2019-03-01T14:42:48.175Z,39.30
2019-03-01T14:45:22.191Z,36.80
2019-03-01T14:47:51.390Z,31.93
2019-03-01T14:50:21.936Z,33.17
2019-03-01T14:52:56.705Z,32.27
2019-03-01T14:55:28.720Z,27.03
2019-03-01T14:58:13.903Z,26.93
2019-03-01T15:00:52.811Z,27.20
2019-03-01T15:03:36.008Z,24.93
2019-03-01T15:06:06.637Z,24.47
2019-03-01T15:08:36.203Z,25.00
2019-03-01T15:11:09.172Z,23.50
2019-03-01T15:13:38.455Z,22.43
2019-03-01T15:16:08.257Z,22.30
2019-03-01T15:18:38.061Z,20.37
2019-03-01T15:21:08.124Z,19.77
2019-03-01T15:23:37.258Z,19.77
2019-03-01T15:26:06.387Z,20.47
2019-03-01T15:28:46.819Z,21.70
2019-03-01T15:31:15.996Z,19.17
2019-03-01T15:33:47.102Z,20.43
2019-03-01T15:36:18.067Z,19.67
2019-03-01T15:38:46.998Z,17.07
2019-03-01T15:41:16.151Z,17.13
2019-03-01T15:43:45.298Z,16.97
2019-03-01T15:46:15.344Z,16.17
2019-03-01T15:48:44.928Z,15.07
2019-03-01T15:51:14.085Z,16.43
2019-03-01T15:53:43.212Z,15.53
2019-03-01T15:56:12.397Z,14.77
2019-03-01T15:58:41.609Z,16.23
2019-03-01T16:01:12.109Z,15.30
2019-03-01T16:03:42.508Z,14.97
2019-03-01T16:06:17.489Z,15.73
2019-03-01T16:08:43.862Z,15.83
2019-03-01T16:11:13.659Z,15.73
2019-03-01T16:13:48.001Z,15.13
2019-03-01T16:16:14.561Z,15.93
2019-03-01T16:18:44.033Z,16.50
2019-03-01T16:21:13.220Z,14.30
2019-03-01T16:23:42.414Z,14.20
2019-03-01T16:26:14.186Z,16.57
2019-03-01T16:28:43.359Z,16.00
2019-03-01T16:31:12.500Z,15.03
2019-03-01T16:33:41.594Z,15.57
2019-03-01T16:36:17.030Z,15.43
2019-03-01T16:38:48.719Z,16.67
2019-03-01T16:41:17.074Z,16.40
2019-03-01T16:43:46.191Z,15.97
2019-03-01T16:46:15.413Z,17.63
2019-03-01T16:48:44.618Z,16.83
2019-03-01T16:51:33.268Z,16.67
2019-03-01T16:54:02.478Z,16.17
2019-03-01T16:56:34.677Z,17.57
2019-03-01T16:59:03.804Z,16.37
2019-03-01T17:01:33.432Z,18.87
2019-03-01T17:04:02.584Z,16.67
2019-03-01T17:06:31.736Z,17.07
2019-03-01T17:09:00.906Z,17.27
2019-03-01T17:11:30.035Z,16.70
2019-03-01T17:13:59.523Z,16.17
2019-03-01T17:16:30.275Z,16.57
2019-03-01T17:18:59.460Z,17.20
2019-03-01T17:21:28.691Z,16.70
2019-03-01T17:23:57.858Z,15.90
2019-03-01T17:26:29.886Z,16.60
2019-03-01T17:28:59.681Z,15.40
2019-03-01T17:31:29.165Z,18.53
2019-03-01T17:33:58.332Z,18.17
2019-03-01T17:36:27.565Z,16.73
2019-03-01T17:38:56.729Z,15.70
2019-03-01T17:41:25.901Z,15.00
2019-03-01T17:43:55.099Z,16.80
2019-03-01T17:46:25.457Z,17.03
2019-03-01T17:48:57.384Z,16.33
2019-03-01T17:51:25.575Z,18.67
2019-03-01T17:53:54.827Z,15.47
2019-03-01T17:56:23.934Z,14.60
2019-03-01T17:58:53.185Z,16.17
2019-03-01T18:01:22.337Z,15.43
2019-03-01T18:03:51.491Z,13.93
2019-03-01T18:06:20.633Z,11.90
2019-03-01T18:08:49.806Z,15.30
2019-03-01T18:11:18.916Z,16.33
2019-03-01T18:13:48.090Z,16.63
2019-03-01T18:16:17.279Z,15.53
2019-03-01T18:18:49.493Z,15.70
2019-03-01T18:21:17.376Z,16.57
2019-03-01T18:23:46.524Z,17.53
2019-03-01T18:26:15.687Z,16.93
2019-03-01T18:28:44.854Z,17.90
2019-03-01T18:31:13.979Z,18.33
2019-03-01T18:33:43.163Z,17.73
2019-03-01T18:36:12.309Z,19.33
2019-03-01T18:38:41.497Z,20.30
2019-03-01T18:41:11.178Z,21.07
2019-03-01T18:43:40.523Z,22.50
2019-03-01T18:46:09.668Z,22.37
2019-03-01T18:48:40.497Z,23.50
2019-03-01T18:51:09.785Z,23.07
2019-03-01T18:53:38.995Z,25.03
2019-03-01T18:56:08.161Z,24.10
2019-03-01T18:58:37.471Z,24.53
2019-03-01T19:01:10.700Z,24.07
2019-03-01T19:03:40.306Z,24.23
2019-03-01T19:06:12.914Z,23.30
2019-03-01T19:08:40.613Z,22.73
2019-03-01T19:11:09.738Z,20.30
2019-03-01T19:13:38.886Z,21.20
2019-03-01T19:16:08.053Z,21.77
2019-03-01T19:18:37.196Z,21.07
2019-03-01T19:21:06.357Z,21.20
2019-03-01T19:23:35.525Z,22.13
2019-03-01T19:26:04.675Z,24.53
2019-03-01T19:28:33.842Z,23.03
2019-03-01T19:31:03.006Z,23.77
2019-03-01T19:33:34.666Z,22.00
2019-03-01T19:36:03.532Z,23.97
2019-03-01T19:38:33.745Z,22.03
2019-03-01T19:41:02.905Z,24.03
2019-03-01T19:43:32.196Z,25.23
2019-03-01T19:46:01.335Z,24.97
2019-03-01T19:48:30.587Z,27.37
2019-03-01T19:51:01.839Z,27.53
2019-03-01T19:53:30.728Z,28.43
2019-03-01T19:55:59.971Z,28.60
2019-03-01T19:58:29.226Z,27.77
2019-03-01T20:00:58.380Z,28.20
2019-03-01T20:03:27.538Z,29.77
2019-03-01T20:05:56.809Z,27.60
2019-03-01T20:08:26.482Z,28.80
2019-03-01T20:10:56.836Z,26.80
2019-03-01T20:13:25.968Z,28.97
2019-03-01T20:15:55.135Z,31.03
2019-03-01T20:18:24.354Z,27.07
2019-03-01T20:20:53.604Z,28.40
2019-03-01T20:23:22.776Z,27.90
2019-03-01T20:25:51.983Z,28.70
2019-03-01T20:28:21.156Z,27.37
2019-03-01T20:30:50.341Z,27.03
2019-03-01T20:33:23.353Z,27.27
2019-03-01T20:35:50.451Z,24.47
2019-03-01T20:38:19.626Z,26.97
2019-03-01T20:40:48.868Z,27.33
2019-03-01T20:43:18.071Z,26.63
2019-03-01T20:45:47.381Z,26.83
2019-03-01T20:48:16.631Z,26.40
2019-03-01T20:50:47.597Z,24.40
2019-03-01T20:53:16.697Z,25.07
2019-03-01T20:55:45.959Z,26.13
2019-03-01T20:58:15.231Z,26.57
2019-03-01T21:00:44.430Z,27.07
2019-03-01T21:03:13.656Z,26.33
2019-03-01T21:05:42.841Z,24.97
2019-03-01T21:08:12.082Z,24.80
2019-03-01T21:10:41.264Z,26.03
2019-03-01T21:13:12.498Z,26.27
2019-03-01T21:15:41.360Z,26.37
2019-03-01T21:18:10.547Z,26.07
2019-03-01T21:20:39.676Z,23.10
2019-03-01T21:23:11.768Z,27.63
2019-03-01T21:25:40.781Z,25.33
2019-03-01T21:28:10.336Z,24.40
2019-03-01T21:30:39.497Z,26.20
2019-03-01T21:33:08.657Z,27.17
2019-03-01T21:35:37.928Z,24.50
2019-03-01T21:38:07.099Z,28.07
2019-03-01T21:40:36.316Z,25.53
2019-03-01T21:43:05.493Z,23.67
2019-03-01T21:45:34.723Z,25.40
2019-03-01T21:48:03.859Z,25.83
2019-03-01T21:50:33.068Z,25.83
2019-03-01T21:53:05.469Z,25.77
2019-03-01T21:55:33.096Z,25.60
2019-03-01T21:58:03.454Z,25.13
2019-03-01T22:00:34.801Z,26.57
2019-03-01T22:03:04.632Z,26.40
2019-03-01T22:05:33.826Z,28.33
2019-03-01T22:08:03.010Z,26.00
2019-03-01T22:10:35.663Z,28.10
2019-03-01T22:13:03.027Z,27.13
2019-03-01T22:15:32.239Z,28.70
2019-03-01T22:18:01.392Z,30.47
2019-03-01T22:20:30.618Z,27.90
2019-03-01T22:22:59.751Z,29.87
2019-03-01T22:25:28.929Z,28.50
2019-03-01T22:28:01.098Z,28.67
2019-03-01T22:30:30.132Z,28.43
2019-03-01T22:32:59.328Z,27.50
2019-03-01T22:35:28.521Z,28.47
2019-03-01T22:38:00.990Z,28.37
2019-03-01T22:40:29.409Z,29.63
2019-03-01T22:42:58.881Z,30.10
2019-03-01T22:45:28.003Z,29.67
2019-03-01T22:47:57.221Z,27.43
2019-03-01T22:50:26.381Z,28.17
2019-03-01T22:52:55.550Z,27.83
2019-03-01T22:55:24.711Z,28.57
2019-03-01T22:57:53.847Z,29.87
2019-03-01T23:01:06.281Z,29.90
2019-03-01T23:03:35.463Z,27.97
2019-03-01T23:06:04.633Z,29.37
2019-03-01T23:08:35.552Z,31.33
2019-03-01T23:11:04.770Z,28.57
2019-03-01T23:13:33.948Z,28.80
2019-03-01T23:16:03.387Z,28.93
2019-03-01T23:18:32.510Z,29.57
2019-03-01T23:21:01.992Z,30.57
2019-03-01T23:23:31.262Z,30.67
2019-03-01T23:26:00.415Z,31.53
2019-03-01T23:28:29.553Z,29.73
2019-03-01T23:31:00.555Z,31.17
2019-03-01T23:33:31.675Z,28.90
2019-03-01T23:36:00.628Z,27.47
2019-03-01T23:38:29.744Z,29.10
2019-03-01T23:40:58.913Z,28.77
2019-03-01T23:43:30.833Z,29.77
2019-03-01T23:45:58.993Z,30.40
2019-03-01T23:48:28.174Z,28.77
2019-03-01T23:50:57.316Z,29.83
2019-03-01T23:53:27.484Z,28.33
2019-03-01T23:55:56.791Z,27.00
2019-03-01T23:58:25.921Z,29.17
